Terminal Aerodrome Forecast
Issued by NWS

Current Version | Previous Version | Graphics & Text | Print | Product List | Glossary On
Versions: 1 2 3 4 5 6 7 8 9 10 11 12 13 14 15 16 17 18 19
000
FTUS41 KPBZ 021300 AAA
TAFHLG
TAF AMD
KHLG 021326Z 0213/0312 30014KT P6SM SCT015 OVC025
      TEMPO 0213/0214 1SM -SN OVC015
     FM021600 28008KT P6SM BKN025
     FM022300 VRB03KT P6SM BKN250
     FM030800 VRB05KT P6SM OVC120=

USA.gov is the U.S. government's official web portal to all federal, state and local government web resources and services.